Time;durP1;ratioP1;P1;durP2;ratioP2;P2;SDS_P1;SDS_P2;PMS_P1;PMS_P2;Temp;Humidity;BMP_temperature;BMP_pressure;BME280_temperature;BME280_humidity;BME280_pressure;Samples;Min_cycle;Max_cycle;Signal;HPM_P1;HPM_P2
2021/04/20 00:02:48;;;;;;;21.53;18.33;;;;;;;9.72;55.56;95355.75;6888119;28;20208;-72
2021/04/20 00:06:09;;;;;;;19.20;17.20;;;;;;;9.69;55.46;95356.88;6890416;28;20231;-72
2021/04/20 00:09:29;;;;;;;20.43;18.33;;;;;;;9.65;55.74;95347.50;6866640;28;20227;-72
2021/04/20 00:12:53;;;;;;;22.40;20.10;;;;;;;9.64;55.74;95348.47;6886885;28;20230;-72
2021/04/20 00:16:13;;;;;;;27.27;21.43;;;;;;;9.64;56.10;95340.50;6891435;28;20235;-72
2021/04/20 00:19:34;;;;;;;23.20;20.83;;;;;;;9.62;56.24;95342.44;6892623;28;20821;-72
2021/04/20 00:22:54;;;;;;;23.57;20.37;;;;;;;9.58;56.33;95338.38;6891255;28;20289;-72
2021/04/20 00:26:15;;;;;;;22.77;20.37;;;;;;;9.59;56.31;95334.75;6885906;28;20305;-72
2021/04/20 00:29:36;;;;;;;24.23;20.93;;;;;;;9.62;56.01;95329.19;6889347;28;20610;-73
2021/04/20 00:32:56;;;;;;;24.33;21.73;;;;;;;9.60;56.23;95336.44;6894046;28;20762;-72
2021/04/20 00:36:16;;;;;;;23.93;21.20;;;;;;;9.53;56.59;95332.59;6890908;28;20214;-72
2021/04/20 00:39:38;;;;;;;22.23;20.07;;;;;;;9.47;56.41;95335.75;6893656;28;20302;-73
2021/04/20 00:42:58;;;;;;;19.80;17.73;;;;;;;9.40;56.96;95324.84;6885289;28;20708;-73
2021/04/20 00:46:20;;;;;;;19.30;17.20;;;;;;;9.35;57.49;95332.34;6893034;28;20713;-72
2021/04/20 00:49:43;;;;;;;21.67;19.23;;;;;;;9.30;57.85;95331.03;6888410;28;20222;-72
2021/04/20 00:53:04;;;;;;;19.33;17.37;;;;;;;9.28;57.38;95331.16;6891089;28;20846;-72
2021/04/20 00:56:28;;;;;;;19.77;17.77;;;;;;;9.26;57.25;95318.97;6878677;28;20229;-72
2021/04/20 00:59:48;;;;;;;21.50;18.67;;;;;;;9.22;57.76;95322.84;6892577;28;20290;-72
2021/04/20 01:03:09;;;;;;;23.07;20.57;;;;;;;9.27;57.55;95323.31;6893874;28;20243;-72
2021/04/20 01:06:31;;;;;;;22.17;19.93;;;;;;;9.24;58.05;95323.59;6901574;28;20231;-72
2021/04/20 01:09:52;;;;;;;23.73;19.47;;;;;;;9.20;57.41;95319.50;6869861;28;20630;-72
2021/04/20 01:13:13;;;;;;;22.63;19.47;;;;;;;9.16;57.98;95316.25;6877379;28;20738;-71
2021/04/20 01:16:34;;;;;;;22.40;20.10;;;;;;;9.16;58.05;95318.06;6896870;28;20304;-72
2021/04/20 01:20:00;;;;;;;21.87;19.30;;;;;;;9.15;58.16;95316.41;6881117;28;20228;-72
2021/04/20 01:23:29;;;;;;;22.10;19.80;;;;;;;9.12;57.90;95309.53;6888027;28;20222;-72
2021/04/20 01:26:51;;;;;;;24.33;21.07;;;;;;;9.13;58.21;95307.72;6874638;28;20301;-72
2021/04/20 01:30:12;;;;;;;24.10;20.87;;;;;;;9.18;58.35;95308.19;6879974;28;20220;-73
2021/04/20 01:33:33;;;;;;;24.37;21.30;;;;;;;9.17;58.32;95311.78;6876493;28;20223;-72
2021/04/20 01:36:53;;;;;;;24.53;21.97;;;;;;;9.14;58.42;95309.41;6877096;28;20207;-72
2021/04/20 01:40:16;;;;;;;22.20;19.90;;;;;;;9.11;58.39;95314.94;6880491;28;20218;-72
2021/04/20 01:43:38;;;;;;;21.50;19.27;;;;;;;9.10;58.39;95310.63;6886552;28;20310;-72
2021/04/20 01:46:58;;;;;;;23.07;19.97;;;;;;;9.04;58.21;95309.31;6873548;28;20704;-73
2021/04/20 01:50:19;;;;;;;22.47;20.17;;;;;;;9.00;58.83;95313.19;6891727;28;20229;-72
2021/04/20 01:53:39;;;;;;;23.17;20.67;;;;;;;8.94;58.70;95314.53;6873666;28;20273;-72
2021/04/20 01:57:01;;;;;;;23.63;20.67;;;;;;;8.84;59.20;95313.59;6895443;28;20688;-73
2021/04/20 02:00:22;;;;;;;24.67;21.90;;;;;;;8.75;59.37;95316.16;6891439;28;20241;-72
2021/04/20 02:03:45;;;;;;;23.43;20.63;;;;;;;8.66;59.79;95301.81;6890274;28;20219;-72
2021/04/20 02:07:05;;;;;;;24.23;21.57;;;;;;;8.63;59.45;95307.38;6884480;28;20227;-72
2021/04/20 02:10:26;;;;;;;24.80;22.10;;;;;;;8.60;60.08;95303.16;6896285;28;20314;-72
2021/04/20 02:13:46;;;;;;;22.73;20.43;;;;;;;8.58;59.59;95309.56;6867346;28;20722;-73
2021/04/20 02:17:07;;;;;;;23.47;20.73;;;;;;;8.56;59.83;95308.81;6892464;28;20722;-72
2021/04/20 02:20:29;;;;;;;24.00;21.47;;;;;;;8.52;59.76;95307.38;6895190;28;20253;-72
2021/04/20 02:23:52;;;;;;;25.70;23.03;;;;;;;8.52;59.90;95304.75;6894192;28;20240;-72
2021/04/20 02:27:13;;;;;;;25.57;22.93;;;;;;;8.50;59.81;95306.69;6871092;28;20212;-72
2021/04/20 02:30:33;;;;;;;24.83;22.27;;;;;;;8.51;59.95;95309.19;6874080;28;20229;-72
2021/04/20 02:33:55;;;;;;;24.53;21.93;;;;;;;8.53;60.00;95301.13;6897144;28;20245;-73
2021/04/20 02:37:17;;;;;;;26.30;22.20;;;;;;;8.53;59.93;95307.28;6898481;28;20224;-72
2021/04/20 02:40:38;;;;;;;31.00;23.40;;;;;;;8.52;59.58;95305.59;6890076;28;20695;-72
2021/04/20 02:44:02;;;;;;;26.43;23.73;;;;;;;8.50;59.68;95301.41;6880494;28;20253;-73
2021/04/20 02:47:24;;;;;;;26.00;23.30;;;;;;;8.45;60.49;95296.44;6871642;28;20223;-72
2021/04/20 02:50:46;;;;;;;26.83;23.73;;;;;;;8.40;60.22;95305.75;6881522;28;20290;-72
2021/04/20 02:54:10;;;;;;;27.37;24.13;;;;;;;8.35;60.33;95298.13;6881091;28;20695;-72
2021/04/20 02:57:34;;;;;;;26.90;23.93;;;;;;;8.31;60.04;95294.06;6878711;28;21688;-72
2021/04/20 03:01:07;;;;;;;25.93;23.13;;;;;;;8.32;60.99;95302.84;6886839;28;20718;-71
2021/04/20 03:04:28;;;;;;;24.10;21.73;;;;;;;8.31;60.86;95304.63;6873498;28;20578;-71
2021/04/20 03:07:48;;;;;;;25.37;22.03;;;;;;;8.30;61.41;95291.56;6879287;28;20213;-72
2021/04/20 03:11:14;;;;;;;23.50;21.00;;;;;;;8.32;61.35;95287.81;6885818;28;20608;-71
2021/04/20 03:14:35;;;;;;;25.13;22.30;;;;;;;8.33;61.45;95294.78;6890234;28;20303;-72
2021/04/20 03:17:56;;;;;;;27.60;24.60;;;;;;;8.34;61.87;95293.00;6880836;28;20225;-72
2021/04/20 03:21:17;;;;;;;26.83;22.70;;;;;;;8.33;61.33;95297.44;6890957;28;20229;-71
2021/04/20 03:24:50;;;;;;;25.17;22.47;;;;;;;8.33;61.32;95292.16;6876190;28;20206;-72
2021/04/20 03:28:11;;;;;;;26.60;23.30;;;;;;;8.30;61.33;95284.44;6898938;28;20224;-72
2021/04/20 03:31:36;;;;;;;26.90;23.97;;;;;;;8.28;61.43;95290.78;6885209;28;20221;-71
2021/04/20 03:35:14;;;;;;;28.30;23.47;;;;;;;8.23;61.26;95282.38;6878570;28;20241;-72
2021/04/20 03:38:54;;;;;;;27.67;23.67;;;;;;;8.17;61.24;95281.06;6899641;28;20216;-71
2021/04/20 03:42:23;;;;;;;29.83;25.10;;;;;;;8.11;61.31;95285.03;6895305;28;20274;-72
2021/04/20 03:45:56;;;;;;;30.73;24.10;;;;;;;8.05;61.58;95285.50;6894636;28;20214;-71
2021/04/20 03:49:21;;;;;;;26.00;23.17;;;;;;;8.03;61.42;95281.31;6883002;28;20694;-71
2021/04/20 03:52:54;;;;;;;30.07;26.03;;;;;;;8.00;61.35;95287.66;6891446;28;20596;-72
2021/04/20 03:56:16;;;;;;;30.70;26.20;;;;;;;7.95;61.50;95281.88;6891187;28;20264;-71
2021/04/20 03:59:37;;;;;;;30.60;27.30;;;;;;;7.93;61.72;95283.81;6884703;28;20214;-73
2021/04/20 04:02:58;;;;;;;29.17;25.10;;;;;;;7.89;61.81;95277.09;6887241;28;20205;-71
2021/04/20 04:06:19;;;;;;;30.23;24.87;;;;;;;7.87;61.86;95280.81;6887109;28;20267;-72
2021/04/20 04:09:41;;;;;;;34.23;25.53;;;;;;;7.86;62.31;95285.25;6882600;28;20217;-71
2021/04/20 04:13:05;;;;;;;27.93;24.93;;;;;;;7.83;62.41;95287.31;6899782;28;20209;-72
2021/04/20 04:16:27;;;;;;;36.13;30.07;;;;;;;7.78;62.57;95285.00;6891477;28;20228;-71
2021/04/20 04:19:49;;;;;;;35.87;29.10;;;;;;;7.73;62.38;95285.38;6874518;28;20687;-71
2021/04/20 04:23:17;;;;;;;31.87;28.10;;;;;;;7.70;62.05;95288.22;6894415;28;20212;-70
2021/04/20 04:26:42;;;;;;;38.83;31.20;;;;;;;7.70;62.44;95288.22;6907240;28;20207;-71
2021/04/20 04:30:11;;;;;;;35.20;28.87;;;;;;;7.70;62.94;95290.88;6883272;28;20225;-72
2021/04/20 04:33:34;;;;;;;35.70;29.97;;;;;;;7.71;62.94;95286.44;6873470;28;20212;-72
2021/04/20 04:36:57;;;;;;;35.13;29.93;;;;;;;7.65;62.54;95287.75;6878159;28;20299;-71
2021/04/20 04:40:19;;;;;;;32.93;29.10;;;;;;;7.64;62.73;95291.38;6892329;28;20689;-71
2021/04/20 04:43:41;;;;;;;38.33;29.83;;;;;;;7.62;62.82;95295.06;6885159;28;20228;-71
2021/04/20 04:47:01;;;;;;;35.37;29.03;;;;;;;7.64;63.47;95288.72;6874767;28;20224;-70
2021/04/20 04:50:25;;;;;;;31.53;27.93;;;;;;;7.58;63.05;95293.63;6888017;28;20228;-72
2021/04/20 04:53:46;;;;;;;33.33;29.03;;;;;;;7.49;63.16;95297.81;6892545;28;20240;-71
2021/04/20 04:57:09;;;;;;;31.43;26.60;;;;;;;7.48;63.61;95314.63;6895210;28;20220;-73
2021/04/20 05:00:30;;;;;;;32.47;28.00;;;;;;;7.50;63.53;95310.06;6891378;28;20231;-71
2021/04/20 05:03:50;;;;;;;37.20;27.87;;;;;;;7.52;63.32;95299.38;6876810;28;20291;-71
2021/04/20 05:07:11;;;;;;;32.97;26.83;;;;;;;7.53;63.19;95309.00;6863311;28;20311;-71
2021/04/20 05:10:31;;;;;;;31.70;26.30;;;;;;;7.57;63.41;95310.44;6878872;28;20236;-72
2021/04/20 05:13:52;;;;;;;28.40;25.37;;;;;;;7.62;63.34;95303.00;6894351;28;20308;-71
2021/04/20 05:17:12;;;;;;;30.43;26.17;;;;;;;7.71;63.29;95305.78;6881226;28;20216;-71
2021/04/20 05:20:34;;;;;;;28.77;25.67;;;;;;;7.85;63.43;95304.72;6888599;28;20216;-71
2021/04/20 05:23:54;;;;;;;29.73;25.57;;;;;;;7.98;63.71;95304.63;6890588;28;20290;-70
2021/04/20 05:27:14;;;;;;;27.30;24.20;;;;;;;8.05;63.37;95306.66;6877254;28;20221;-71
2021/04/20 05:30:35;;;;;;;27.33;23.77;;;;;;;8.15;63.09;95304.13;6893102;28;20741;-71
2021/04/20 05:33:56;;;;;;;28.20;25.20;;;;;;;8.26;63.40;95292.69;6890266;28;20223;-70
2021/04/20 05:37:39;;;;;;;27.43;24.43;;;;;;;8.41;63.30;95302.09;6900503;28;20220;-72
2021/04/20 05:41:01;;;;;;;30.30;26.27;;;;;;;8.54;62.77;95305.47;6893319;28;20218;-71
2021/04/20 05:44:22;;;;;;;26.70;23.90;;;;;;;8.65;63.01;95301.97;6897428;28;20250;-71
2021/04/20 05:47:44;;;;;;;29.63;23.80;;;;;;;8.80;62.88;95309.50;6887319;28;20219;-72
2021/04/20 05:51:05;;;;;;;27.07;24.27;;;;;;;9.03;62.48;95300.53;6895918;28;20277;-71
2021/04/20 05:54:25;;;;;;;28.27;24.30;;;;;;;9.27;62.12;95299.47;6903870;28;20220;-71
2021/04/20 05:57:47;;;;;;;26.63;23.77;;;;;;;9.45;61.49;95304.09;6900089;28;20298;-71
2021/04/20 06:01:10;;;;;;;24.07;21.60;;;;;;;9.65;60.98;95301.59;6886036;28;20249;-71
2021/04/20 06:04:31;;;;;;;24.40;21.80;;;;;;;9.77;60.67;95297.88;6875784;28;20209;-72
2021/04/20 06:07:54;;;;;;;23.87;21.50;;;;;;;9.89;60.46;95297.69;6879686;28;20239;-72
2021/04/20 06:11:14;;;;;;;24.37;21.13;;;;;;;10.06;60.21;95296.22;6882336;28;20221;-72
2021/04/20 06:14:38;;;;;;;24.77;20.50;;;;;;;10.20;59.71;95308.34;6878804;28;20217;-71
2021/04/20 06:17:59;;;;;;;24.00;19.93;;;;;;;10.29;59.81;95316.38;6891017;28;20691;-74
2021/04/20 06:21:23;;;;;;;22.23;20.03;;;;;;;10.48;59.07;95312.94;6884794;28;20217;-73
2021/04/20 06:24:45;;;;;;;23.50;21.00;;;;;;;10.72;58.66;95312.59;6888468;28;20209;-72
2021/04/20 06:28:07;;;;;;;21.90;19.77;;;;;;;10.92;58.65;95314.31;6876545;28;20216;-73
2021/04/20 06:31:31;;;;;;;22.33;20.00;;;;;;;11.16;58.00;95313.97;6884022;28;20216;-73
2021/04/20 06:34:52;;;;;;;23.03;19.73;;;;;;;11.46;57.22;95308.53;6884204;28;20213;-72
2021/04/20 06:38:13;;;;;;;21.43;19.30;;;;;;;11.66;56.34;95301.38;6895312;28;20569;-73
2021/04/20 06:41:34;;;;;;;23.63;20.67;;;;;;;11.86;55.72;95304.88;6882957;28;20650;-74
2021/04/20 06:44:59;;;;;;;21.53;19.37;;;;;;;12.02;55.08;95315.78;6875344;28;20209;-73
2021/04/20 06:48:42;;;;;;;21.60;19.30;;;;;;;12.16;54.49;95311.81;6885655;28;20220;-73
2021/04/20 06:52:07;;;;;;;22.20;20.03;;;;;;;12.40;54.21;95306.81;6887052;28;20272;-72
2021/04/20 06:55:47;;;;;;;21.93;19.63;;;;;;;12.71;53.65;95299.41;6891905;28;20689;-74
2021/04/20 06:59:15;;;;;;;21.50;19.30;;;;;;;12.95;52.67;95305.03;6882898;28;20254;-73
2021/04/20 07:03:00;;;;;;;19.03;17.00;;;;;;;13.12;52.66;95301.59;6899840;28;20263;-73
2021/04/20 07:06:30;;;;;;;19.13;16.87;;;;;;;13.31;52.07;95296.13;6883152;28;20969;-72
2021/04/20 07:10:00;;;;;;;18.50;16.63;;;;;;;13.44;51.54;95297.56;6885405;28;20240;-72
2021/04/20 07:13:29;;;;;;;20.20;18.10;;;;;;;13.71;51.09;95290.31;6894691;28;20702;-72
2021/04/20 07:17:10;;;;;;;19.80;17.63;;;;;;;14.01;50.32;95286.38;6897493;28;20216;-71
2021/04/20 07:20:55;;;;;;;18.40;16.50;;;;;;;14.32;49.43;95283.22;6897971;28;20585;-71
2021/04/20 07:24:18;;;;;;;18.80;16.90;;;;;;;14.59;48.54;95291.06;6877701;28;20637;-72
2021/04/20 07:27:51;;;;;;;21.03;18.53;;;;;;;14.91;48.27;95285.03;6860976;28;20236;-73
2021/04/20 07:32:02;;;;;;;20.67;18.50;;;;;;;15.33;47.26;95279.66;6867316;28;20230;-72
2021/04/20 07:35:29;;;;;;;20.83;18.70;;;;;;;15.65;45.86;95279.72;6896149;28;20296;-72
2021/04/20 07:39:10;;;;;;;22.93;20.53;;;;;;;15.98;45.17;95277.88;6895331;28;20301;-73
2021/04/20 07:42:43;;;;;;;21.50;19.07;;;;;;;16.26;44.67;95273.81;6910032;28;20217;-71
2021/04/20 07:46:12;;;;;;;22.07;19.87;;;;;;;16.70;43.44;95279.59;6894556;28;20208;-72
2021/04/20 07:49:59;;;;;;;21.07;19.03;;;;;;;16.97;42.71;95272.13;6866788;28;20221;-72
2021/04/20 07:53:24;;;;;;;20.40;18.40;;;;;;;17.27;42.30;95265.09;6883441;28;20208;-72
2021/04/20 07:56:56;;;;;;;21.73;19.53;;;;;;;17.54;41.48;95245.78;6886114;28;20214;-72
2021/04/20 08:00:22;;;;;;;20.83;18.63;;;;;;;17.85;40.94;95254.66;6864465;28;20229;-72
2021/04/20 08:03:50;;;;;;;20.47;18.57;;;;;;;18.17;40.45;95250.81;6863966;28;20698;-72
2021/04/20 08:07:23;;;;;;;22.70;20.50;;;;;;;18.44;39.26;95255.59;6875677;28;20212;-72
2021/04/20 08:10:52;;;;;;;19.93;18.03;;;;;;;18.53;38.73;95248.28;6884463;28;20224;-72
2021/04/20 08:14:25;;;;;;;21.57;19.57;;;;;;;18.81;39.20;95243.94;6866357;28;20677;-72
2021/04/20 08:17:56;;;;;;;20.47;18.60;;;;;;;19.12;38.13;95248.25;6853213;28;20213;-73
2021/04/20 08:21:17;;;;;;;21.27;19.07;;;;;;;19.26;37.78;95248.22;6869046;28;20221;-73
2021/04/20 08:24:55;;;;;;;20.57;18.63;;;;;;;19.44;37.55;95241.59;6883161;28;20205;-75
2021/04/20 08:28:16;;;;;;;21.57;19.47;;;;;;;19.50;36.88;95246.25;6886684;28;20598;-72
2021/04/20 08:31:48;;;;;;;19.73;17.67;;;;;;;19.76;36.94;95233.06;6879647;28;20695;-72
2021/04/20 08:35:22;;;;;;;19.27;17.37;;;;;;;19.96;36.08;95233.25;6857528;28;20208;-72
2021/04/20 08:39:12;;;;;;;20.47;18.43;;;;;;;20.01;35.75;95241.56;6853742;28;20712;-72
2021/04/20 08:43:00;;;;;;;19.83;18.03;;;;;;;20.08;35.22;95239.75;6859281;28;20224;-73
2021/04/20 08:46:51;;;;;;;19.80;17.90;;;;;;;20.35;35.43;95233.59;6905207;28;20227;-74
2021/04/20 08:50:25;;;;;;;18.87;17.17;;;;;;;20.69;34.85;95234.63;6882984;28;20255;-74
2021/04/20 08:54:10;;;;;;;19.60;17.87;;;;;;;21.25;33.99;95232.66;6859303;28;20706;-73
2021/04/20 08:57:57;;;;;;;18.73;17.10;;;;;;;21.95;33.40;95236.78;6875715;28;20241;-73
2021/04/20 09:01:40;;;;;;;19.17;17.37;;;;;;;22.67;31.74;95234.06;6905709;28;20217;-72
2021/04/20 09:05:25;;;;;;;18.33;16.65;;;;;;;23.54;30.31;95232.81;6873848;28;20294;-73
2021/04/20 09:08:52;;;;;;;19.13;17.23;;;;;;;24.17;29.19;95234.50;6865077;28;20661;-74
2021/04/20 09:12:14;;;;;;;17.60;15.70;;;;;;;24.70;28.01;95228.59;6886988;28;20228;-73
2021/04/20 09:15:36;;;;;;;18.60;16.88;;;;;;;25.28;27.75;95223.63;6858937;28;20363;-73
2021/04/20 09:19:01;;;;;;;19.33;17.60;;;;;;;26.07;27.02;95219.84;6860093;28;20213;-73
2021/04/20 09:22:53;;;;;;;17.88;16.33;;;;;;;26.76;25.28;95221.03;6861086;28;20236;-73
2021/04/20 09:26:26;;;;;;;17.88;16.38;;;;;;;27.14;24.61;95221.38;6899964;28;20711;-73
2021/04/20 09:29:56;;;;;;;16.48;15.07;;;;;;;27.46;24.14;95220.97;6878698;28;20253;-74
2021/04/20 09:33:21;;;;;;;17.75;16.17;;;;;;;27.82;23.72;95219.78;6887009;28;20217;-73
2021/04/20 09:36:42;;;;;;;16.17;14.77;;;;;;;28.05;23.15;95216.97;6881626;28;20205;-73
2021/04/20 09:40:04;;;;;;;17.63;16.02;;;;;;;28.24;22.69;95217.59;6879783;28;20270;-73
2021/04/20 09:43:24;;;;;;;16.40;15.00;;;;;;;28.86;22.78;95204.69;6893078;28;20251;-73
2021/04/20 09:46:48;;;;;;;16.02;14.30;;;;;;;29.67;21.47;95205.81;6893992;28;20216;-74
2021/04/20 09:50:22;;;;;;;15.73;14.45;;;;;;;30.10;20.70;95210.41;6903765;28;20232;-73
2021/04/20 09:53:54;;;;;;;15.52;14.18;;;;;;;30.33;20.21;95203.78;6893446;28;20221;-74
2021/04/20 09:57:16;;;;;;;16.25;14.55;;;;;;;30.71;20.17;95206.31;6895792;28;20246;-73
2021/04/20 10:00:41;;;;;;;14.90;13.70;;;;;;;30.90;19.93;95204.00;6904213;28;20236;-74
2021/04/20 10:04:11;;;;;;;15.45;14.15;;;;;;;30.09;19.51;95206.84;6891446;28;20360;-74
2021/04/20 10:07:44;;;;;;;15.93;14.45;;;;;;;28.49;20.72;95207.09;6895174;28;20232;-74
2021/04/20 10:11:12;;;;;;;12.90;11.70;;;;;;;28.83;21.11;95197.81;6890286;28;20224;-73
2021/04/20 10:15:12;;;;;;;13.13;11.98;;;;;;;29.71;19.93;95202.31;6877337;28;20229;-74
2021/04/20 10:19:12;;;;;;;12.43;11.35;;;;;;;30.43;19.66;95201.16;6902023;28;20216;-74
2021/04/20 10:22:52;;;;;;;13.00;11.80;;;;;;;30.88;18.72;95196.06;6895349;28;20608;-74
2021/04/20 10:26:37;;;;;;;11.07;10.13;;;;;;;31.18;18.44;95191.88;6885628;28;20235;-73
2021/04/20 10:30:11;;;;;;;11.00;10.05;;;;;;;31.35;18.33;95193.31;6890187;28;20233;-75
2021/04/20 10:33:33;;;;;;;11.23;10.18;;;;;;;31.72;17.72;95187.75;6873844;28;20224;-75
2021/04/20 10:36:55;;;;;;;10.88;8.55;;;;;;;31.29;17.65;95180.66;6899198;28;20606;-76
2021/04/20 10:40:29;;;;;;;10.68;9.80;;;;;;;31.35;17.29;95181.50;6885620;28;20248;-74
2021/04/20 10:43:51;;;;;;;10.40;9.45;;;;;;;31.62;17.70;95171.25;6895037;28;20567;-74
2021/04/20 10:47:12;;;;;;;9.63;8.82;;;;;;;31.93;16.79;95170.25;6884545;28;20217;-75
2021/04/20 10:50:37;;;;;;;10.43;9.43;;;;;;;31.89;16.87;95171.84;6880223;28;20323;-75
2021/04/20 10:53:58;;;;;;;11.95;10.88;;;;;;;31.73;17.70;95170.19;6888408;28;20225;-74
2021/04/20 10:57:19;;;;;;;11.50;10.40;;;;;;;30.89;17.60;95162.03;6875795;28;20221;-74
2021/04/20 11:00:43;;;;;;;10.10;9.20;;;;;;;29.33;17.54;95164.06;6886212;28;20232;-75
2021/04/20 11:04:04;;;;;;;10.15;9.35;;;;;;;27.63;19.36;95165.41;6889293;28;20658;-74
2021/04/20 11:07:33;;;;;;;11.90;10.73;;;;;;;26.47;20.57;95171.03;6874988;28;20256;-74
2021/04/20 11:10:58;;;;;;;10.98;10.07;;;;;;;25.36;21.51;95159.94;6873462;28;20239;-74
2021/04/20 11:14:39;;;;;;;10.60;9.25;;;;;;;24.69;23.17;95167.22;6887657;28;20216;-74
2021/04/20 11:18:07;;;;;;;12.45;9.43;;;;;;;24.11;23.71;95164.81;6878476;28;20217;-74
2021/04/20 11:21:28;;;;;;;12.05;10.95;;;;;;;23.71;24.92;95160.75;6874896;28;20219;-74
2021/04/20 11:24:56;;;;;;;10.67;9.67;;;;;;;23.55;24.87;95163.97;6875598;28;20282;-76
2021/04/20 11:28:22;;;;;;;12.30;10.97;;;;;;;23.31;25.09;95158.25;6880068;28;20299;-75
2021/04/20 11:31:49;;;;;;;9.50;8.70;;;;;;;22.88;24.67;95159.91;6885141;28;20241;-75
2021/04/20 11:35:13;;;;;;;10.10;9.10;;;;;;;22.20;25.81;95157.53;6882952;28;20224;-74
2021/04/20 11:38:53;;;;;;;7.90;7.20;;;;;;;21.86;25.32;95151.50;6881403;28;20212;-73
2021/04/20 11:42:24;;;;;;;8.53;7.73;;;;;;;21.74;25.37;95152.13;6895358;28;20220;-73
2021/04/20 11:45:46;;;;;;;11.40;8.03;;;;;;;21.54;26.31;95147.72;6892185;28;20212;-74
2021/04/20 11:49:28;;;;;;;12.33;11.13;;;;;;;21.37;27.28;95148.13;6888549;28;20217;-73
2021/04/20 11:53:05;;;;;;;12.43;10.67;;;;;;;21.25;28.41;95146.22;6883221;28;20208;-73
2021/04/20 11:56:25;;;;;;;11.57;10.37;;;;;;;20.95;27.98;95149.22;6882103;28;20216;-73
2021/04/20 11:59:47;;;;;;;11.30;10.20;;;;;;;20.80;28.26;95153.09;6878873;28;20244;-73
2021/04/20 12:03:10;;;;;;;11.37;10.37;;;;;;;20.57;28.14;95156.13;6879226;28;20303;-72
2021/04/20 12:06:45;;;;;;;11.40;9.57;;;;;;;20.55;28.90;95158.19;6877913;28;20223;-73
2021/04/20 12:10:06;;;;;;;10.43;9.50;;;;;;;20.62;29.03;95142.88;6893763;28;20310;-73
2021/04/20 12:13:32;;;;;;;11.20;10.20;;;;;;;20.57;28.90;95147.19;6875211;28;21763;-73
2021/04/20 12:16:57;;;;;;;9.23;8.40;;;;;;;20.63;28.70;95143.69;6879107;28;20209;-73
2021/04/20 12:20:24;;;;;;;11.03;10.07;;;;;;;20.77;28.74;95140.03;6894446;28;20216;-74
2021/04/20 12:23:51;;;;;;;11.60;10.43;;;;;;;20.71;28.38;95140.81;6871209;28;20799;-73
2021/04/20 12:27:14;;;;;;;10.03;9.13;;;;;;;20.85;29.63;95140.69;6900250;28;20226;-72
2021/04/20 12:30:34;;;;;;;11.40;10.30;;;;;;;21.00;28.87;95127.03;6882417;28;20635;-72
2021/04/20 12:33:55;;;;;;;10.40;9.47;;;;;;;21.13;28.17;95118.09;6892487;28;20702;-73
2021/04/20 12:37:16;;;;;;;10.60;9.50;;;;;;;20.98;27.73;95131.78;6895217;28;20270;-72
2021/04/20 12:40:36;;;;;;;9.27;8.37;;;;;;;20.96;28.24;95115.81;6894988;28;20670;-72
2021/04/20 12:43:59;;;;;;;10.10;8.73;;;;;;;20.92;28.38;95128.03;6881044;28;20581;-72
2021/04/20 12:47:26;;;;;;;10.47;9.40;;;;;;;20.85;28.23;95127.19;6890765;28;20687;-72
2021/04/20 12:50:50;;;;;;;10.70;9.43;;;;;;;20.75;28.35;95118.63;6889793;28;20304;-73
2021/04/20 12:54:11;;;;;;;9.87;8.93;;;;;;;20.49;28.58;95124.75;6902033;28;20346;-72
2021/04/20 12:57:35;;;;;;;9.30;8.50;;;;;;;20.26;28.59;95121.47;6878160;28;20217;-73
2021/04/20 13:01:04;;;;;;;10.27;9.13;;;;;;;20.23;29.41;95123.72;6897362;28;20223;-72
2021/04/20 13:04:30;;;;;;;9.57;8.77;;;;;;;20.37;29.55;95118.22;6879825;28;20224;-72
2021/04/20 13:07:53;;;;;;;9.97;8.87;;;;;;;20.38;28.70;95116.38;6893007;28;20346;-73
2021/04/20 13:11:30;;;;;;;10.17;9.27;;;;;;;20.40;29.02;95117.00;6894561;28;20248;-73
2021/04/20 13:14:51;;;;;;;10.13;9.33;;;;;;;20.30;28.61;95117.34;6874865;28;20273;-73
2021/04/20 13:18:14;;;;;;;9.70;8.80;;;;;;;20.21;28.79;95115.00;6892492;28;20216;-72
2021/04/20 13:21:37;;;;;;;10.77;9.67;;;;;;;20.21;29.10;95107.75;6877314;28;20228;-72
2021/04/20 13:25:00;;;;;;;9.63;8.57;;;;;;;20.35;30.01;95108.69;6897866;28;20210;-73
2021/04/20 13:28:42;;;;;;;10.87;9.87;;;;;;;20.46;29.34;95108.13;6880189;28;20223;-74
2021/04/20 13:32:04;;;;;;;9.87;8.90;;;;;;;20.35;29.39;95101.44;6881084;28;20724;-73
2021/04/20 13:35:25;;;;;;;11.43;10.33;;;;;;;20.26;29.52;95101.78;6877250;28;20223;-74
2021/04/20 13:38:51;;;;;;;10.17;9.27;;;;;;;20.18;29.29;95097.34;6875591;28;20211;-73
2021/04/20 13:42:25;;;;;;;10.27;9.37;;;;;;;20.10;28.81;95092.97;6885339;28;20227;-73
2021/04/20 13:45:51;;;;;;;11.33;10.20;;;;;;;19.98;28.98;95091.84;6892658;28;20230;-74
2021/04/20 13:49:12;;;;;;;10.10;9.20;;;;;;;20.00;28.97;95091.66;6890916;28;20293;-73
2021/04/20 13:52:39;;;;;;;10.40;9.50;;;;;;;20.04;29.33;95077.59;6883444;28;20220;-73
2021/04/20 13:56:28;;;;;;;9.97;9.07;;;;;;;20.04;29.19;95071.34;6897100;28;20256;-73
2021/04/20 13:59:53;;;;;;;9.77;8.77;;;;;;;20.05;29.60;95068.47;6895158;28;20230;-73
2021/04/20 14:03:19;;;;;;;9.77;8.90;;;;;;;20.18;30.27;95066.88;6890892;28;20220;-72
2021/04/20 14:06:48;;;;;;;9.33;8.53;;;;;;;20.34;29.72;95064.72;6877067;28;20204;-73
2021/04/20 14:10:13;;;;;;;8.93;8.07;;;;;;;20.42;29.23;95061.03;6899312;28;20227;-73
2021/04/20 14:13:36;;;;;;;8.90;8.00;;;;;;;20.49;29.38;95051.06;6877787;28;20743;-73
2021/04/20 14:16:58;;;;;;;9.30;8.43;;;;;;;20.53;29.74;95052.31;6887483;28;20220;-73
2021/04/20 14:20:23;;;;;;;9.40;8.50;;;;;;;20.39;28.63;95051.44;6887634;28;20226;-73
2021/04/20 14:23:44;;;;;;;9.13;8.23;;;;;;;20.18;29.12;95048.81;6880180;28;20219;-73
2021/04/20 14:27:07;;;;;;;9.63;8.70;;;;;;;19.90;29.41;95048.06;6884115;28;20231;-73
2021/04/20 14:30:28;;;;;;;9.27;8.37;;;;;;;19.63;29.69;95052.44;6882708;28;20244;-74
2021/04/20 14:33:54;;;;;;;8.20;7.40;;;;;;;19.40;30.23;95049.97;6878037;28;20314;-74
2021/04/20 14:37:18;;;;;;;9.10;8.20;;;;;;;19.26;30.39;95051.69;6870342;28;20219;-74
2021/04/20 14:40:39;;;;;;;8.53;7.80;;;;;;;19.07;30.52;95057.72;6876679;28;20285;-74
2021/04/20 14:43:59;;;;;;;8.53;7.73;;;;;;;19.03;31.03;95052.94;6899418;28;20810;-74
2021/04/20 14:47:20;;;;;;;9.57;8.67;;;;;;;19.01;31.02;95049.63;6894809;28;20239;-74
2021/04/20 14:50:42;;;;;;;10.10;7.70;;;;;;;18.96;31.01;95047.50;6883809;28;20237;-74
2021/04/20 14:54:03;;;;;;;8.43;7.63;;;;;;;19.00;30.82;95051.47;6901780;28;20222;-74
2021/04/20 14:57:34;;;;;;;8.77;7.97;;;;;;;18.84;30.58;95041.78;6885162;28;20652;-73
2021/04/20 15:01:02;;;;;;;7.30;6.70;;;;;;;18.75;30.81;95042.13;6907854;28;20276;-74
2021/04/20 15:04:23;;;;;;;10.07;8.33;;;;;;;18.69;30.48;95051.78;6879225;28;20271;-73
2021/04/20 15:07:54;;;;;;;9.83;8.23;;;;;;;18.37;29.77;95053.03;6886304;28;20244;-74
2021/04/20 15:11:15;;;;;;;7.80;7.10;;;;;;;18.15;30.44;95053.16;6880076;28;20608;-74
2021/04/20 15:14:38;;;;;;;10.90;7.67;;;;;;;18.24;30.75;95050.19;6897034;28;20881;-73
2021/04/20 15:18:06;;;;;;;7.63;7.00;;;;;;;18.39;31.07;95048.31;6902864;28;20214;-74
2021/04/20 15:21:30;;;;;;;8.30;7.50;;;;;;;18.53;30.65;95048.44;6885010;28;20228;-75
2021/04/20 15:24:53;;;;;;;8.70;7.80;;;;;;;18.39;29.61;95055.53;6886370;28;20640;-73
2021/04/20 15:28:19;;;;;;;8.27;7.47;;;;;;;18.25;29.54;95057.22;6905483;28;20275;-74
2021/04/20 15:31:42;;;;;;;8.23;7.30;;;;;;;18.17;30.21;95059.16;6899424;28;20255;-74
2021/04/20 15:35:04;;;;;;;7.87;7.17;;;;;;;18.22;29.52;95059.44;6886247;28;20221;-74
2021/04/20 15:38:33;;;;;;;8.77;7.00;;;;;;;18.29;29.46;95055.84;6902819;28;20213;-74
2021/04/20 15:41:53;;;;;;;7.83;7.13;;;;;;;18.25;29.14;95053.72;6885264;28;20224;-74
2021/04/20 15:45:15;;;;;;;7.23;6.53;;;;;;;18.09;28.96;95051.22;6877627;28;20223;-74
2021/04/20 15:48:40;;;;;;;7.37;6.67;;;;;;;18.12;29.86;95056.22;6897723;28;20502;-74
2021/04/20 15:52:04;;;;;;;8.50;7.40;;;;;;;18.17;29.88;95053.78;6897726;28;20227;-74
2021/04/20 15:55:31;;;;;;;8.00;7.30;;;;;;;18.23;29.94;95045.81;6881071;28;20222;-73
2021/04/20 15:59:04;;;;;;;8.90;7.13;;;;;;;18.27;30.37;95049.81;6898448;28;20223;-74